CYBK

Baker Lake Airport

Baker Lake, Canada
METAR CYBK 241100Z 00000KT 15SM FEW005 FEW024 M34/M38 A3031 RMK ST1SC1 ST TR SLP268
Observed Flight Rules
Jan-24 @ 11:00 UTC (32 minutes ago) Visual Flight Rules
Wind Visibility Clouds
Calm 15 miles
  • Few at 500' AGL
  • Few at 2,400' AGL
Temperatures Readings
Current -34°C / -29°F
Dewpoint -38°C / -36°F
Humidity 67%
Altimeter 30.31" Hg
Pressure 1026.8 hPa
Elevation 18
METAR CYBK 241100Z 00000KT 15SM FEW005 FEW024 M34/M38 A3031 RMK ST1SC1 ST TR SLP268
Observed Flight Rules
Jan-24 @ 11:00 UTC
(32 minutes ago)
VFR
Wind Visibility
Calm 15 miles
Clouds
  • Few at 500' AGL
  • Few at 2,400' AGL
Temperature Dewpoint
-34°C / -29°F -38°C / -36°F
Humidity Altimeter Pressure
67% 30.31" Hg 1026.8 hPa